createdAt,value
2023-03-06T00:00:51.137Z,95577.75
2023-03-06T00:03:19.432Z,95577.44
2023-03-06T00:05:48.903Z,95572.13
2023-03-06T00:08:16.932Z,95579.00
2023-03-06T00:10:44.872Z,95582.03
2023-03-06T00:13:15.223Z,95585.91
2023-03-06T00:15:43.262Z,95581.75
2023-03-06T00:18:11.319Z,95577.91
2023-03-06T00:20:40.915Z,95584.81
2023-03-06T00:23:10.552Z,95584.84
2023-03-06T00:25:38.899Z,95576.34
2023-03-06T00:28:07.037Z,95579.41
2023-03-06T00:30:35.193Z,95571.88
2023-03-06T00:33:03.127Z,95572.84
2023-03-06T00:35:31.138Z,95568.31
2023-03-06T00:37:59.809Z,95568.31
2023-03-06T00:40:29.194Z,95577.66
2023-03-06T00:42:57.117Z,95576.63
2023-03-06T00:45:25.082Z,95561.09
2023-03-06T00:47:52.993Z,95563.72
2023-03-06T00:50:21.162Z,95555.13
2023-03-06T00:52:49.178Z,95561.81
2023-03-06T00:55:17.322Z,95561.16
2023-03-06T00:57:46.649Z,95548.38
2023-03-06T01:00:15.164Z,95543.00
2023-03-06T01:02:43.132Z,95551.44
2023-03-06T01:05:11.524Z,95548.28
2023-03-06T01:07:39.489Z,95541.31
2023-03-06T01:10:09.058Z,95535.97
2023-03-06T01:12:36.951Z,95534.53
2023-03-06T01:15:08.202Z,95534.31
2023-03-06T01:17:36.112Z,95532.88
2023-03-06T01:20:04.363Z,95523.91
2023-03-06T01:22:32.496Z,95524.91
2023-03-06T01:25:00.422Z,95511.84
2023-03-06T01:27:28.435Z,95502.47
2023-03-06T01:29:56.511Z,95511.63
2023-03-06T01:32:25.834Z,95523.09
2023-03-06T01:34:53.965Z,95514.38
2023-03-06T01:37:21.956Z,95508.28
2023-03-06T01:39:49.881Z,95507.09
2023-03-06T01:42:17.866Z,95510.00
2023-03-06T01:44:59.861Z,95503.28
2023-03-06T01:47:29.420Z,95502.09
2023-03-06T01:49:57.949Z,95495.84
2023-03-06T01:52:27.782Z,95493.25
2023-03-06T01:54:57.539Z,95499.91
2023-03-06T01:57:27.401Z,95488.16
2023-03-06T01:59:59.946Z,95479.22
2023-03-06T02:02:29.394Z,95485.91
2023-03-06T02:04:57.624Z,95471.59
2023-03-06T02:07:26.288Z,95485.91
2023-03-06T02:09:54.203Z,95482.34
2023-03-06T02:12:23.437Z,95474.38
2023-03-06T02:14:51.675Z,95475.31
2023-03-06T02:17:21.732Z,95464.53
2023-03-06T02:19:56.292Z,95456.22
2023-03-06T02:22:27.273Z,95459.63
2023-03-06T02:24:58.378Z,95454.94
2023-03-06T02:27:28.340Z,95461.63
2023-03-06T02:29:56.454Z,95455.50
2023-03-06T02:32:24.411Z,95451.66
2023-03-06T02:34:57.643Z,95454.59
2023-03-06T02:37:27.181Z,95446.69
2023-03-06T02:40:00.272Z,95443.41
2023-03-06T02:42:30.037Z,95438.38
2023-03-06T02:44:59.034Z,95436.75
2023-03-06T02:47:27.081Z,95432.91
2023-03-06T02:49:55.006Z,95433.63
2023-03-06T02:52:22.962Z,95424.63
2023-03-06T02:54:50.942Z,95423.44
2023-03-06T02:57:18.857Z,95427.00
2023-03-06T02:59:48.172Z,95421.41
2023-03-06T03:02:16.205Z,95433.38
2023-03-06T03:04:44.140Z,95418.72
2023-03-06T03:07:12.174Z,95414.38
2023-03-06T03:09:40.111Z,95415.66
2023-03-06T03:12:08.893Z,95415.66
2023-03-06T03:14:36.860Z,95396.72
2023-03-06T03:17:07.868Z,95394.09
2023-03-06T03:19:35.889Z,95397.47
2023-03-06T03:22:03.792Z,95399.94
2023-03-06T03:24:31.765Z,95403.44
2023-03-06T03:26:59.964Z,95409.41
2023-03-06T03:29:27.912Z,95392.91
2023-03-06T03:31:55.815Z,95393.59
2023-03-06T03:34:25.133Z,95392.47
2023-03-06T03:36:53.042Z,95392.66
2023-03-06T03:39:21.033Z,95394.03
2023-03-06T03:41:49.002Z,95383.22
2023-03-06T03:44:17.122Z,95386.88
2023-03-06T03:46:45.207Z,95386.13
2023-03-06T03:49:13.349Z,95381.34
2023-03-06T03:51:42.657Z,95384.69
2023-03-06T03:54:10.770Z,95384.75
2023-03-06T03:56:40.349Z,95372.69
2023-03-06T03:59:08.672Z,95373.81
2023-03-06T04:01:39.381Z,95377.59
2023-03-06T04:04:07.583Z,95379.09
2023-03-06T04:06:35.549Z,95371.25
2023-03-06T04:09:05.393Z,95366.97
2023-03-06T04:11:33.361Z,95370.81
2023-03-06T04:14:01.304Z,95362.31
2023-03-06T04:16:29.319Z,95356.56
2023-03-06T04:18:57.388Z,95361.09
2023-03-06T04:21:25.326Z,95364.19
2023-03-06T04:23:53.328Z,95358.38
2023-03-06T04:26:22.671Z,95357.91
2023-03-06T04:28:50.690Z,95358.63
2023-03-06T04:31:18.629Z,95346.75
2023-03-06T04:33:46.632Z,95349.38
2023-03-06T04:36:26.546Z,95342.34
2023-03-06T04:38:54.560Z,95343.25
2023-03-06T04:41:24.531Z,95336.44
2023-03-06T04:43:52.777Z,95338.66
2023-03-06T04:46:20.807Z,95332.69
2023-03-06T04:48:48.968Z,95332.38
2023-03-06T04:51:17.000Z,95332.75
2023-03-06T04:53:44.961Z,95315.91
2023-03-06T04:56:12.935Z,95327.47
2023-03-06T04:58:42.246Z,95326.28
2023-03-06T05:01:10.268Z,95327.59
2023-03-06T05:03:38.338Z,95323.09
2023-03-06T05:06:06.818Z,95321.75
2023-03-06T05:08:34.753Z,95321.06
2023-03-06T05:11:03.354Z,95312.59
2023-03-06T05:13:31.469Z,95313.53
2023-03-06T05:16:04.522Z,95309.78
2023-03-06T05:18:32.637Z,95305.31
2023-03-06T05:21:00.735Z,95298.59
2023-03-06T05:23:28.893Z,95305.97
2023-03-06T05:25:56.920Z,95301.88
2023-03-06T05:28:25.959Z,95303.09
2023-03-06T05:30:54.120Z,95313.78
2023-03-06T05:33:23.425Z,95294.22
2023-03-06T05:35:51.445Z,95314.06
2023-03-06T05:38:20.027Z,95305.06
2023-03-06T05:40:47.964Z,95300.69
2023-03-06T05:43:16.033Z,95301.53
2023-03-06T05:45:44.540Z,95312.63
2023-03-06T05:48:13.791Z,95309.16
2023-03-06T05:50:43.108Z,95303.69
2023-03-06T05:53:11.063Z,95314.56
2023-03-06T05:55:38.993Z,95294.50
2023-03-06T05:58:06.963Z,95306.13
2023-03-06T06:00:34.854Z,95306.00
2023-03-06T06:03:03.182Z,95307.19
2023-03-06T06:05:31.123Z,95311.97
2023-03-06T06:08:01.075Z,95302.41
2023-03-06T06:10:29.055Z,95306.31
2023-03-06T06:12:57.057Z,95308.38
2023-03-06T06:15:28.009Z,95300.03
2023-03-06T06:17:56.237Z,95305.38
2023-03-06T06:20:24.681Z,95318.19
2023-03-06T06:22:52.869Z,95312.59
2023-03-06T06:25:22.311Z,95314.09
2023-03-06T06:27:50.249Z,95315.44
2023-03-06T06:30:18.826Z,95315.78
2023-03-06T06:32:46.772Z,95309.91
2023-03-06T06:35:14.781Z,95311.78
2023-03-06T06:37:42.717Z,95309.28
2023-03-06T06:40:11.944Z,95310.34
2023-03-06T06:42:41.491Z,95310.00
2023-03-06T06:45:10.764Z,95304.56
2023-03-06T06:47:41.420Z,95311.38
2023-03-06T06:50:11.484Z,95299.69
2023-03-06T06:52:39.392Z,95304.28
2023-03-06T06:55:08.101Z,95303.69
2023-03-06T06:57:36.138Z,95306.13
2023-03-06T07:00:06.288Z,95303.19
2023-03-06T07:02:34.306Z,95303.19
2023-03-06T07:05:05.389Z,95294.81
2023-03-06T07:07:35.691Z,95301.75
2023-03-06T07:10:05.535Z,95302.69
2023-03-06T07:12:35.096Z,95286.22
2023-03-06T07:15:05.147Z,95294.97
2023-03-06T07:17:33.124Z,95299.19
2023-03-06T07:20:01.137Z,95298.22
2023-03-06T07:22:31.999Z,95296.94
2023-03-06T07:25:04.595Z,95293.47
2023-03-06T07:27:32.622Z,95291.28
2023-03-06T07:30:00.760Z,95295.19
2023-03-06T07:32:30.413Z,95286.34
2023-03-06T07:35:17.220Z,95286.03
2023-03-06T07:37:46.404Z,95283.25
2023-03-06T07:40:14.433Z,95274.56
2023-03-06T07:42:42.404Z,95286.69
2023-03-06T07:45:12.360Z,95291.97
2023-03-06T07:47:42.066Z,95285.28
2023-03-06T07:50:10.900Z,95281.06
2023-03-06T07:52:38.836Z,95282.50
2023-03-06T07:55:07.891Z,95281.44
2023-03-06T07:57:35.821Z,95278.25
2023-03-06T08:00:04.316Z,95275.38
2023-03-06T08:02:32.318Z,95275.75
2023-03-06T08:05:01.659Z,95281.16
2023-03-06T08:07:30.778Z,95280.38
2023-03-06T08:09:58.689Z,95263.19
2023-03-06T08:12:26.661Z,95278.53
2023-03-06T08:14:54.629Z,95278.47
2023-03-06T08:17:22.599Z,95276.75
2023-03-06T08:19:50.648Z,95275.22
2023-03-06T08:22:19.977Z,95269.25
2023-03-06T08:24:47.911Z,95278.38
2023-03-06T08:27:15.864Z,95280.00
2023-03-06T08:29:43.848Z,95264.75
2023-03-06T08:32:12.730Z,95263.81
2023-03-06T08:34:42.530Z,95273.97
2023-03-06T08:37:10.517Z,95263.19
2023-03-06T08:39:39.851Z,95264.13
2023-03-06T08:42:08.121Z,95265.03
2023-03-06T08:44:36.606Z,95263.69
2023-03-06T08:47:05.179Z,95247.28
2023-03-06T08:49:33.176Z,95264.91
2023-03-06T08:52:01.067Z,95261.72
2023-03-06T08:54:29.080Z,95262.34
2023-03-06T08:56:58.386Z,95263.81
2023-03-06T08:59:26.413Z,95235.69
2023-03-06T09:01:54.428Z,95255.78
2023-03-06T09:04:22.421Z,95256.50
2023-03-06T09:06:50.424Z,95251.69
2023-03-06T09:09:18.458Z,95251.06
2023-03-06T09:11:46.414Z,95252.13
2023-03-06T09:14:15.808Z,95243.50
2023-03-06T09:16:43.887Z,95253.66
2023-03-06T09:19:11.844Z,95254.75
2023-03-06T09:21:39.800Z,95247.25
2023-03-06T09:24:08.262Z,95246.03
2023-03-06T09:26:45.551Z,95242.31
2023-03-06T09:29:17.619Z,95235.66
2023-03-06T09:31:45.860Z,95233.75
2023-03-06T09:34:13.789Z,95240.41
2023-03-06T09:36:56.143Z,95239.78
2023-03-06T09:39:25.782Z,95231.94
2023-03-06T09:41:54.119Z,95233.44
2023-03-06T09:44:26.046Z,95235.16
2023-03-06T09:47:21.518Z,95231.91
2023-03-06T09:50:05.818Z,95234.22
2023-03-06T09:52:38.654Z,95229.25
2023-03-06T09:55:12.888Z,95227.47
2023-03-06T09:57:44.386Z,95220.31
2023-03-06T10:00:17.273Z,95226.00
2023-03-06T10:02:48.075Z,95227.72
2023-03-06T10:05:19.665Z,95230.53
2023-03-06T10:07:50.324Z,95226.31
2023-03-06T10:10:21.024Z,95232.28
2023-03-06T10:12:55.259Z,95230.66
2023-03-06T10:15:27.235Z,95234.84
2023-03-06T10:17:55.319Z,95222.38
2023-03-06T10:20:25.646Z,95227.19
2023-03-06T10:23:15.731Z,95228.84
2023-03-06T10:25:50.020Z,95240.16
2023-03-06T10:28:19.569Z,95223.63
2023-03-06T10:30:53.898Z,95241.97
2023-03-06T10:33:33.340Z,95237.03
2023-03-06T10:36:01.372Z,95225.78
2023-03-06T10:38:37.485Z,95224.00
2023-03-06T10:41:09.010Z,95222.50
2023-03-06T10:43:37.784Z,95223.75
2023-03-06T10:46:07.945Z,95218.81
2023-03-06T10:48:37.099Z,95223.44
2023-03-06T10:51:18.912Z,95218.13
2023-03-06T10:53:52.171Z,95221.31
2023-03-06T10:56:28.816Z,95215.25
2023-03-06T10:59:08.073Z,95207.38
2023-03-06T11:01:37.821Z,95204.47
2023-03-06T11:04:16.892Z,95209.69
2023-03-06T11:06:45.039Z,95210.75
2023-03-06T11:09:20.393Z,95197.13
2023-03-06T11:11:48.399Z,95190.44
2023-03-06T11:14:17.848Z,95190.94
2023-03-06T11:16:53.420Z,95188.38
2023-03-06T11:19:25.715Z,95174.72
2023-03-06T11:22:04.980Z,95175.16
2023-03-06T11:24:38.006Z,95174.13
2023-03-06T11:27:18.143Z,95178.16
2023-03-06T11:29:46.876Z,95158.03
2023-03-06T11:32:21.609Z,95164.22
2023-03-06T11:34:50.956Z,95155.84
2023-03-06T11:37:26.406Z,95154.13
2023-03-06T11:40:02.005Z,95150.66
2023-03-06T11:42:31.492Z,95148.22
2023-03-06T11:45:10.261Z,95145.59
2023-03-06T11:47:43.330Z,95139.41
2023-03-06T11:50:19.246Z,95132.13
2023-03-06T11:52:50.154Z,95142.75
2023-03-06T11:55:25.473Z,95119.66
2023-03-06T11:57:59.676Z,95125.25
2023-03-06T12:00:34.856Z,95132.47
2023-03-06T12:03:22.090Z,95135.75
2023-03-06T12:05:53.936Z,95136.50
2023-03-06T12:08:44.151Z,95139.38
2023-03-06T12:11:18.854Z,95127.06
2023-03-06T12:13:54.609Z,95129.19
2023-03-06T12:17:16.551Z,95132.41
2023-03-06T12:19:57.131Z,95137.84
2023-03-06T12:22:36.112Z,95140.34
2023-03-06T12:25:34.980Z,95138.81
2023-03-06T12:28:11.278Z,95132.47
2023-03-06T12:30:54.342Z,95132.31
2023-03-06T12:33:29.347Z,95126.56
2023-03-06T12:36:04.867Z,95112.47
2023-03-06T12:38:50.076Z,95114.91
2023-03-06T12:41:25.603Z,95120.44
2023-03-06T12:44:03.837Z,95116.06
2023-03-06T12:46:31.769Z,95119.38
2023-03-06T12:49:05.408Z,95122.84
2023-03-06T12:51:35.327Z,95122.69
2023-03-06T12:54:04.347Z,95098.59
2023-03-06T12:56:33.060Z,95116.81
2023-03-06T12:59:02.486Z,95115.38
2023-03-06T13:01:55.345Z,95105.22
2023-03-06T13:04:44.758Z,95105.34
2023-03-06T13:07:33.244Z,95117.44
2023-03-06T13:10:10.290Z,95114.44
2023-03-06T13:12:49.505Z,95105.56
2023-03-06T13:15:32.660Z,95100.81
2023-03-06T13:18:00.936Z,95104.44
2023-03-06T13:20:35.304Z,95107.22
2023-03-06T13:23:43.142Z,95105.75
2023-03-06T13:26:50.857Z,95108.75
2023-03-06T13:29:58.433Z,95110.97
2023-03-06T13:32:32.225Z,95111.78
2023-03-06T13:35:00.151Z,95113.38
2023-03-06T13:37:50.842Z,95106.41
2023-03-06T13:40:33.309Z,95105.97
2023-03-06T13:43:21.411Z,95095.66
2023-03-06T13:45:50.044Z,95098.19
2023-03-06T13:48:43.537Z,95098.09
2023-03-06T13:51:24.980Z,95092.84
2023-03-06T13:54:14.455Z,95090.03
2023-03-06T13:57:30.171Z,95094.22
2023-03-06T14:00:37.537Z,95084.22
2023-03-06T14:03:44.086Z,95093.03
2023-03-06T14:06:48.647Z,95088.72
2023-03-06T14:09:24.795Z,95085.41
2023-03-06T14:11:54.946Z,95088.56
2023-03-06T14:14:40.269Z,95086.53
2023-03-06T14:17:08.524Z,95089.47
2023-03-06T14:19:40.358Z,95093.59
2023-03-06T14:22:14.974Z,95090.66
2023-03-06T14:24:48.755Z,95094.44
2023-03-06T14:27:18.705Z,95091.47
2023-03-06T14:29:48.719Z,95089.19
2023-03-06T14:32:19.131Z,95073.75
2023-03-06T14:34:49.492Z,95083.28
2023-03-06T14:37:22.659Z,95079.25
2023-03-06T14:39:50.662Z,95070.91
2023-03-06T14:42:20.062Z,95079.47
2023-03-06T14:44:48.306Z,95087.16
2023-03-06T14:47:23.741Z,95080.16
2023-03-06T14:50:26.510Z,95091.06
2023-03-06T14:52:57.347Z,95081.19
2023-03-06T14:55:27.173Z,95079.66
2023-03-06T14:57:58.205Z,95087.56
2023-03-06T15:00:30.646Z,95080.78
2023-03-06T15:02:59.001Z,95073.69
2023-03-06T15:05:29.920Z,95077.88
2023-03-06T15:08:01.167Z,95082.34
2023-03-06T15:10:30.952Z,95065.28
2023-03-06T15:13:09.584Z,95077.00
2023-03-06T15:15:37.560Z,95077.75
2023-03-06T15:18:25.515Z,95085.69
2023-03-06T15:20:55.978Z,95078.91
2023-03-06T15:23:26.436Z,95084.56
2023-03-06T15:25:56.806Z,95072.00
2023-03-06T15:28:27.872Z,95076.44
2023-03-06T15:31:12.673Z,95073.50
2023-03-06T15:33:40.656Z,95079.91
2023-03-06T15:36:20.667Z,95075.66
2023-03-06T15:38:48.966Z,95070.38
2023-03-06T15:41:23.348Z,95070.19
2023-03-06T15:43:51.433Z,95055.47
2023-03-06T15:46:19.474Z,95070.59
2023-03-06T15:48:54.621Z,95075.66
2023-03-06T15:51:24.060Z,95077.91
2023-03-06T15:53:55.006Z,95064.63
2023-03-06T15:56:30.105Z,95074.31
2023-03-06T15:58:58.731Z,95074.53
2023-03-06T16:01:26.989Z,95069.78
2023-03-06T16:03:55.051Z,95079.19
2023-03-06T16:06:26.110Z,95079.66
2023-03-06T16:08:54.447Z,95081.88
2023-03-06T16:11:32.478Z,95070.66
2023-03-06T16:14:03.523Z,95076.50
2023-03-06T16:16:35.412Z,95082.97
2023-03-06T16:19:04.930Z,95088.16
2023-03-06T16:21:34.269Z,95095.34
2023-03-06T16:24:02.674Z,95092.69
2023-03-06T16:26:32.139Z,95094.47
2023-03-06T16:29:00.135Z,95104.22
2023-03-06T16:31:28.151Z,95108.16
2023-03-06T16:33:56.161Z,95103.09
2023-03-06T16:36:26.680Z,95102.88
2023-03-06T16:38:56.007Z,95107.56
2023-03-06T16:41:23.983Z,95104.09
2023-03-06T16:43:51.975Z,95098.78
2023-03-06T16:46:21.711Z,95096.53
2023-03-06T16:48:49.888Z,95087.63
2023-03-06T16:51:18.840Z,95093.09
2023-03-06T16:53:47.673Z,95094.91
2023-03-06T16:56:18.481Z,95100.66
2023-03-06T16:58:46.444Z,95094.66
2023-03-06T17:01:16.031Z,95097.28
2023-03-06T17:03:44.031Z,95099.91
2023-03-06T17:06:16.434Z,95111.19
2023-03-06T17:08:44.598Z,95113.13
2023-03-06T17:11:12.607Z,95108.97
2023-03-06T17:13:42.232Z,95109.78
2023-03-06T17:16:15.796Z,95118.25
2023-03-06T17:18:44.730Z,95126.56
2023-03-06T17:21:15.564Z,95123.94
2023-03-06T17:23:44.502Z,95124.41
2023-03-06T17:26:14.290Z,95128.56
2023-03-06T17:28:43.761Z,95133.28
2023-03-06T17:31:15.710Z,95134.19
2023-03-06T17:33:43.691Z,95137.00
2023-03-06T17:36:12.321Z,95140.06
2023-03-06T17:38:40.268Z,95142.66
2023-03-06T17:41:09.299Z,95139.94
2023-03-06T17:43:37.961Z,95140.34
2023-03-06T17:46:08.676Z,95147.63
2023-03-06T17:48:37.139Z,95142.28
2023-03-06T17:51:05.577Z,95159.34
2023-03-06T17:53:33.561Z,95155.19
2023-03-06T17:56:04.413Z,95166.16
2023-03-06T17:58:32.426Z,95168.88
2023-03-06T18:01:00.935Z,95163.63
2023-03-06T18:03:30.229Z,95172.72
2023-03-06T18:06:01.446Z,95169.00
2023-03-06T18:08:29.423Z,95174.22
2023-03-06T18:11:00.322Z,95166.41
2023-03-06T18:13:28.293Z,95164.88
2023-03-06T18:15:56.406Z,95168.94
2023-03-06T18:18:24.609Z,95172.50
2023-03-06T18:20:53.892Z,95169.66
2023-03-06T18:23:21.963Z,95180.19
2023-03-06T18:25:50.021Z,95177.50
2023-03-06T18:28:17.972Z,95163.56
2023-03-06T18:30:46.524Z,95182.28
2023-03-06T18:33:14.461Z,95176.34
2023-03-06T18:35:44.069Z,95172.66
2023-03-06T18:38:13.542Z,95186.25
2023-03-06T18:40:42.784Z,95173.81
2023-03-06T18:43:10.711Z,95179.19
2023-03-06T18:45:38.648Z,95174.66
2023-03-06T18:48:06.986Z,95180.88
2023-03-06T18:50:36.186Z,95184.97
2023-03-06T18:53:04.213Z,95178.22
2023-03-06T18:55:33.520Z,95192.16
2023-03-06T18:58:01.430Z,95180.13
2023-03-06T19:00:29.389Z,95193.03
2023-03-06T19:02:57.308Z,95193.44
2023-03-06T19:05:25.228Z,95187.28
2023-03-06T19:07:53.162Z,95193.53
2023-03-06T19:10:21.119Z,95195.19
2023-03-06T19:12:50.423Z,95194.53
2023-03-06T19:15:18.393Z,95198.59
2023-03-06T19:17:49.908Z,95204.78
2023-03-06T19:20:18.487Z,95195.66
2023-03-06T19:22:46.457Z,95208.53
2023-03-06T19:25:14.347Z,95194.63
2023-03-06T19:27:44.798Z,95209.44
2023-03-06T19:30:15.849Z,95207.16
2023-03-06T19:32:46.539Z,95208.13
2023-03-06T19:35:14.513Z,95209.50
2023-03-06T19:37:42.888Z,95213.16
2023-03-06T19:40:12.237Z,95205.88
2023-03-06T19:42:40.424Z,95203.94
2023-03-06T19:45:09.852Z,95208.94
2023-03-06T19:47:39.288Z,95210.91
2023-03-06T19:50:08.264Z,95204.25
2023-03-06T19:52:38.359Z,95205.88
2023-03-06T19:55:08.608Z,95211.72
2023-03-06T19:57:36.537Z,95207.91
2023-03-06T20:00:05.104Z,95206.84
2023-03-06T20:02:34.360Z,95211.72
2023-03-06T20:05:03.723Z,95212.06
2023-03-06T20:07:31.652Z,95212.06
2023-03-06T20:10:00.775Z,95219.47
2023-03-06T20:12:28.707Z,95218.88
2023-03-06T20:14:56.641Z,95218.91
2023-03-06T20:17:24.584Z,95225.97
2023-03-06T20:19:52.678Z,95221.16
2023-03-06T20:22:23.508Z,95218.25
2023-03-06T20:24:51.532Z,95224.13
2023-03-06T20:27:19.592Z,95217.59
2023-03-06T20:29:47.680Z,95221.59
2023-03-06T20:32:15.749Z,95230.28
2023-03-06T20:34:44.472Z,95219.41
2023-03-06T20:37:12.406Z,95222.72
2023-03-06T20:39:41.932Z,95230.13
2023-03-06T20:42:09.946Z,95223.13
2023-03-06T20:44:37.946Z,95212.56
2023-03-06T20:47:06.057Z,95219.56
2023-03-06T20:49:33.971Z,95215.03
2023-03-06T20:52:01.860Z,95214.00
2023-03-06T20:54:29.793Z,95216.53
2023-03-06T20:56:59.165Z,95218.16
2023-03-06T20:59:27.122Z,95228.97
2023-03-06T21:01:55.082Z,95232.00
2023-03-06T21:04:23.027Z,95227.03
2023-03-06T21:06:54.190Z,95229.25
2023-03-06T21:09:22.244Z,95227.50
2023-03-06T21:11:50.275Z,95227.28
2023-03-06T21:14:19.587Z,95237.13
2023-03-06T21:16:47.526Z,95225.31
2023-03-06T21:19:15.529Z,95220.63
2023-03-06T21:21:43.471Z,95217.91
2023-03-06T21:24:11.684Z,95214.34
2023-03-06T21:26:39.629Z,95222.06
2023-03-06T21:29:07.648Z,95214.50
2023-03-06T21:31:37.030Z,95216.22
2023-03-06T21:34:06.273Z,95212.16
2023-03-06T21:36:34.288Z,95215.72
2023-03-06T21:39:02.319Z,95226.13
2023-03-06T21:41:32.285Z,95226.53
2023-03-06T21:44:01.427Z,95218.31
2023-03-06T21:46:30.050Z,95223.59
2023-03-06T21:48:59.793Z,95222.47
2023-03-06T21:51:28.014Z,95217.94
2023-03-06T21:53:56.355Z,95217.44
2023-03-06T21:56:27.956Z,95217.09
2023-03-06T21:58:56.227Z,95218.97
2023-03-06T22:01:25.700Z,95220.69
2023-03-06T22:03:54.068Z,95216.94
2023-03-06T22:06:25.404Z,95220.13
2023-03-06T22:08:53.653Z,95214.72
2023-03-06T22:11:22.870Z,95216.13
2023-03-06T22:13:51.443Z,95209.94
2023-03-06T22:16:20.787Z,95198.63
2023-03-06T22:18:50.090Z,95208.09
2023-03-06T22:21:19.735Z,95203.88
2023-03-06T22:23:51.188Z,95210.91
2023-03-06T22:26:19.323Z,95208.31
2023-03-06T22:28:47.454Z,95205.22
2023-03-06T22:31:16.996Z,95205.22
2023-03-06T22:33:45.355Z,95201.88
2023-03-06T22:36:14.659Z,95206.34
2023-03-06T22:38:44.597Z,95203.41
2023-03-06T22:41:15.017Z,95202.03
2023-03-06T22:43:43.340Z,95199.34
2023-03-06T22:46:13.256Z,95198.63
2023-03-06T22:48:41.472Z,95197.25
2023-03-06T22:51:11.343Z,95192.09
2023-03-06T22:53:39.755Z,95200.44
2023-03-06T22:56:09.334Z,95191.47
2023-03-06T22:58:38.941Z,95192.59
2023-03-06T23:01:12.141Z,95193.63
2023-03-06T23:03:41.725Z,95191.91
2023-03-06T23:06:10.955Z,95190.56
2023-03-06T23:08:39.145Z,95185.81
2023-03-06T23:11:10.026Z,95194.44
2023-03-06T23:13:39.727Z,95194.19
2023-03-06T23:16:09.153Z,95196.31
2023-03-06T23:18:38.139Z,95194.72
2023-03-06T23:21:07.841Z,95191.47
2023-03-06T23:23:36.074Z,95185.47
2023-03-06T23:26:04.145Z,95185.91
2023-03-06T23:28:32.126Z,95193.31
2023-03-06T23:31:01.520Z,95183.69
2023-03-06T23:33:29.484Z,95182.72
2023-03-06T23:35:57.405Z,95185.97
2023-03-06T23:38:25.337Z,95191.53
2023-03-06T23:40:53.239Z,95179.53
2023-03-06T23:43:21.181Z,95177.25
2023-03-06T23:45:55.563Z,95182.00
2023-03-06T23:48:25.336Z,95176.09
2023-03-06T23:50:53.394Z,95174.22
2023-03-06T23:53:21.581Z,95181.09
2023-03-06T23:55:50.820Z,95176.75
2023-03-06T23:58:19.725Z,95179.88
